sensor_id;sensor_type;location;lat;lon;timestamp;temperature;humidity
21518;DHT22;61765;45.794;24.150;2023-02-28T00:05:45;9.90;84.60
21518;DHT22;61765;45.794;24.150;2023-02-28T00:13:51;9.70;84.60
21518;DHT22;61765;45.794;24.150;2023-02-28T00:21:59;9.80;84.90
21518;DHT22;61765;45.794;24.150;2023-02-28T00:30:06;10.00;84.20
21518;DHT22;61765;45.794;24.150;2023-02-28T00:38:15;10.20;84.50
21518;DHT22;61765;45.794;24.150;2023-02-28T00:46:20;10.00;84.20
21518;DHT22;61765;45.794;24.150;2023-02-28T00:54:28;9.80;84.30
21518;DHT22;61765;45.794;24.150;2023-02-28T01:02:34;9.90;85.00
21518;DHT22;61765;45.794;24.150;2023-02-28T01:10:42;9.80;84.40
21518;DHT22;61765;45.794;24.150;2023-02-28T01:18:48;10.00;84.80
21518;DHT22;61765;45.794;24.150;2023-02-28T01:26:56;10.10;84.40
21518;DHT22;61765;45.794;24.150;2023-02-28T01:35:01;10.10;84.80
21518;DHT22;61765;45.794;24.150;2023-02-28T01:51:26;10.00;85.50
21518;DHT22;61765;45.794;24.150;2023-02-28T01:59:37;9.80;85.90
21518;DHT22;61765;45.794;24.150;2023-02-28T02:07:49;9.90;85.90
21518;DHT22;61765;45.794;24.150;2023-02-28T02:16:00;10.10;85.80
21518;DHT22;61765;45.794;24.150;2023-02-28T02:24:45;10.10;86.00
21518;DHT22;61765;45.794;24.150;2023-02-28T02:33:10;10.10;85.90
21518;DHT22;61765;45.794;24.150;2023-02-28T02:41:31;10.10;86.10
21518;DHT22;61765;45.794;24.150;2023-02-28T02:49:43;10.10;86.20
21518;DHT22;61765;45.794;24.150;2023-02-28T02:57:56;10.20;86.20
21518;DHT22;61765;45.794;24.150;2023-02-28T03:06:05;10.00;86.60
21518;DHT22;61765;45.794;24.150;2023-02-28T03:14:27;10.10;86.60
21518;DHT22;61765;45.794;24.150;2023-02-28T03:22:56;10.10;86.90
21518;DHT22;61765;45.794;24.150;2023-02-28T03:31:10;9.90;87.40
21518;DHT22;61765;45.794;24.150;2023-02-28T03:39:20;10.00;87.50
21518;DHT22;61765;45.794;24.150;2023-02-28T03:47:33;10.00;87.20
21518;DHT22;61765;45.794;24.150;2023-02-28T03:55:43;10.00;87.50
21518;DHT22;61765;45.794;24.150;2023-02-28T04:03:53;10.10;87.30
21518;DHT22;61765;45.794;24.150;2023-02-28T04:11:58;10.10;87.40
21518;DHT22;61765;45.794;24.150;2023-02-28T04:20:08;10.20;87.30
21518;DHT22;61765;45.794;24.150;2023-02-28T04:28:14;10.00;87.60
21518;DHT22;61765;45.794;24.150;2023-02-28T04:36:23;10.10;87.70
21518;DHT22;61765;45.794;24.150;2023-02-28T04:44:28;9.80;87.80
21518;DHT22;61765;45.794;24.150;2023-02-28T04:52:36;10.10;87.80
21518;DHT22;61765;45.794;24.150;2023-02-28T05:00:41;10.20;87.40
21518;DHT22;61765;45.794;24.150;2023-02-28T05:08:50;10.00;87.50
21518;DHT22;61765;45.794;24.150;2023-02-28T05:16:55;9.90;88.10
21518;DHT22;61765;45.794;24.150;2023-02-28T05:25:04;10.00;87.70
21518;DHT22;61765;45.794;24.150;2023-02-28T05:33:11;10.10;87.10
21518;DHT22;61765;45.794;24.150;2023-02-28T05:41:20;10.10;87.70
21518;DHT22;61765;45.794;24.150;2023-02-28T05:49:26;10.20;87.00
21518;DHT22;61765;45.794;24.150;2023-02-28T05:57:34;10.30;87.30
21518;DHT22;61765;45.794;24.150;2023-02-28T06:05:39;10.40;87.00
21518;DHT22;61765;45.794;24.150;2023-02-28T06:13:47;10.20;87.40
21518;DHT22;61765;45.794;24.150;2023-02-28T06:21:53;10.20;87.40
21518;DHT22;61765;45.794;24.150;2023-02-28T06:30:02;10.40;87.40
21518;DHT22;61765;45.794;24.150;2023-02-28T06:38:08;10.40;87.10
21518;DHT22;61765;45.794;24.150;2023-02-28T06:46:16;10.30;87.40
21518;DHT22;61765;45.794;24.150;2023-02-28T06:54:21;10.40;87.20
21518;DHT22;61765;45.794;24.150;2023-02-28T07:02:30;10.40;87.30
21518;DHT22;61765;45.794;24.150;2023-02-28T07:10:37;10.60;87.00
21518;DHT22;61765;45.794;24.150;2023-02-28T07:18:45;10.70;87.40
21518;DHT22;61765;45.794;24.150;2023-02-28T07:26:51;10.70;86.80
21518;DHT22;61765;45.794;24.150;2023-02-28T07:34:59;11.00;86.70
21518;DHT22;61765;45.794;24.150;2023-02-28T07:43:04;11.20;86.00
21518;DHT22;61765;45.794;24.150;2023-02-28T07:51:13;11.30;85.30
21518;DHT22;61765;45.794;24.150;2023-02-28T07:59:20;11.10;86.00
21518;DHT22;61765;45.794;24.150;2023-02-28T08:07:29;11.30;85.70
21518;DHT22;61765;45.794;24.150;2023-02-28T08:15:36;11.30;86.10
21518;DHT22;61765;45.794;24.150;2023-02-28T08:23:46;11.30;85.70
21518;DHT22;61765;45.794;24.150;2023-02-28T08:31:51;11.40;85.30
21518;DHT22;61765;45.794;24.150;2023-02-28T08:40:00;11.70;85.10
21518;DHT22;61765;45.794;24.150;2023-02-28T08:48:06;11.60;84.30
21518;DHT22;61765;45.794;24.150;2023-02-28T08:56:16;11.40;85.20
21518;DHT22;61765;45.794;24.150;2023-02-28T09:04:23;11.50;85.50
21518;DHT22;61765;45.794;24.150;2023-02-28T09:12:33;11.80;85.00
21518;DHT22;61765;45.794;24.150;2023-02-28T09:20:40;11.80;84.70
21518;DHT22;61765;45.794;24.150;2023-02-28T09:28:49;11.80;84.80
21518;DHT22;61765;45.794;24.150;2023-02-28T09:36:55;11.80;85.00
21518;DHT22;61765;45.794;24.150;2023-02-28T09:45:11;11.60;85.40
21518;DHT22;61765;45.794;24.150;2023-02-28T09:53:26;11.80;85.10
21518;DHT22;61765;45.794;24.150;2023-02-28T10:01:41;12.00;85.20
21518;DHT22;61765;45.794;24.150;2023-02-28T10:09:53;12.30;84.50
21518;DHT22;61765;45.794;24.150;2023-02-28T10:18:05;12.90;84.20
21518;DHT22;61765;45.794;24.150;2023-02-28T10:26:17;13.20;82.60
21518;DHT22;61765;45.794;24.150;2023-02-28T10:34:25;13.20;82.10
21518;DHT22;61765;45.794;24.150;2023-02-28T10:42:31;13.10;82.70
21518;DHT22;61765;45.794;24.150;2023-02-28T10:50:51;13.20;82.40
21518;DHT22;61765;45.794;24.150;2023-02-28T10:59:02;13.40;81.70
21518;DHT22;61765;45.794;24.150;2023-02-28T11:07:20;13.50;81.70
21518;DHT22;61765;45.794;24.150;2023-02-28T11:15:30;13.80;81.00
21518;DHT22;61765;45.794;24.150;2023-02-28T11:23:41;13.90;80.80
21518;DHT22;61765;45.794;24.150;2023-02-28T11:32:05;14.10;80.70
21518;DHT22;61765;45.794;24.150;2023-02-28T11:40:18;14.50;79.20
21518;DHT22;61765;45.794;24.150;2023-02-28T11:48:29;14.60;78.60
21518;DHT22;61765;45.794;24.150;2023-02-28T11:56:44;14.30;79.00
21518;DHT22;61765;45.794;24.150;2023-02-28T12:05:10;14.30;79.00
21518;DHT22;61765;45.794;24.150;2023-02-28T12:13:24;14.40;79.70
21518;DHT22;61765;45.794;24.150;2023-02-28T12:21:41;14.60;79.50
21518;DHT22;61765;45.794;24.150;2023-02-28T12:29:55;14.90;78.20
21518;DHT22;61765;45.794;24.150;2023-02-28T12:38:05;15.10;77.60
21518;DHT22;61765;45.794;24.150;2023-02-28T12:46:21;15.00;78.00
21518;DHT22;61765;45.794;24.150;2023-02-28T12:54:37;14.70;78.20
21518;DHT22;61765;45.794;24.150;2023-02-28T13:03:06;14.20;79.40
21518;DHT22;61765;45.794;24.150;2023-02-28T13:11:29;14.00;80.20
21518;DHT22;61765;45.794;24.150;2023-02-28T13:19:42;14.00;80.80
21518;DHT22;61765;45.794;24.150;2023-02-28T13:27:51;13.90;81.10
21518;DHT22;61765;45.794;24.150;2023-02-28T13:36:22;13.80;81.30
21518;DHT22;61765;45.794;24.150;2023-02-28T13:44:28;13.40;82.40
21518;DHT22;61765;45.794;24.150;2023-02-28T13:52:44;13.60;82.40
21518;DHT22;61765;45.794;24.150;2023-02-28T14:01:11;14.00;81.60
21518;DHT22;61765;45.794;24.150;2023-02-28T14:09:27;13.70;82.40
21518;DHT22;61765;45.794;24.150;2023-02-28T14:17:36;13.80;82.70
21518;DHT22;61765;45.794;24.150;2023-02-28T14:25:53;14.00;81.40
21518;DHT22;61765;45.794;24.150;2023-02-28T14:34:20;14.00;81.20
21518;DHT22;61765;45.794;24.150;2023-02-28T14:42:35;13.90;81.40
21518;DHT22;61765;45.794;24.150;2023-02-28T14:50:49;13.90;81.50
21518;DHT22;61765;45.794;24.150;2023-02-28T14:58:58;13.70;81.80
21518;DHT22;61765;45.794;24.150;2023-02-28T15:07:08;13.50;82.60
21518;DHT22;61765;45.794;24.150;2023-02-28T15:15:18;13.60;82.40
21518;DHT22;61765;45.794;24.150;2023-02-28T15:23:44;13.60;82.10
21518;DHT22;61765;45.794;24.150;2023-02-28T15:31:57;13.80;81.80
21518;DHT22;61765;45.794;24.150;2023-02-28T15:40:12;13.60;82.20
21518;DHT22;61765;45.794;24.150;2023-02-28T15:48:24;13.50;82.40
21518;DHT22;61765;45.794;24.150;2023-02-28T15:56:33;13.30;82.80
21518;DHT22;61765;45.794;24.150;2023-02-28T16:04:58;13.10;83.10
21518;DHT22;61765;45.794;24.150;2023-02-28T16:13:04;12.80;84.20
21518;DHT22;61765;45.794;24.150;2023-02-28T16:21:12;12.90;84.20
21518;DHT22;61765;45.794;24.150;2023-02-28T16:29:24;12.80;84.20
21518;DHT22;61765;45.794;24.150;2023-02-28T16:37:35;13.00;83.80
21518;DHT22;61765;45.794;24.150;2023-02-28T16:45:48;12.70;83.80
21518;DHT22;61765;45.794;24.150;2023-02-28T16:53:58;12.80;84.00
21518;DHT22;61765;45.794;24.150;2023-02-28T17:02:09;12.80;84.10
21518;DHT22;61765;45.794;24.150;2023-02-28T17:10:21;12.80;84.00
21518;DHT22;61765;45.794;24.150;2023-02-28T17:18:29;12.80;83.70
21518;DHT22;61765;45.794;24.150;2023-02-28T17:26:39;12.70;84.00
21518;DHT22;61765;45.794;24.150;2023-02-28T17:34:45;12.70;83.80
21518;DHT22;61765;45.794;24.150;2023-02-28T17:42:53;12.60;83.50
21518;DHT22;61765;45.794;24.150;2023-02-28T17:50:59;12.60;83.50
21518;DHT22;61765;45.794;24.150;2023-02-28T17:59:09;12.60;84.10
21518;DHT22;61765;45.794;24.150;2023-02-28T18:07:14;11.80;86.70
21518;DHT22;61765;45.794;24.150;2023-02-28T18:15:23;12.30;86.00
21518;DHT22;61765;45.794;24.150;2023-02-28T18:23:29;11.10;88.80
21518;DHT22;61765;45.794;24.150;2023-02-28T18:31:37;11.60;88.10
21518;DHT22;61765;45.794;24.150;2023-02-28T18:39:42;12.10;86.50
21518;DHT22;61765;45.794;24.150;2023-02-28T18:47:51;12.20;85.30
21518;DHT22;61765;45.794;24.150;2023-02-28T18:55:59;12.20;85.00
21518;DHT22;61765;45.794;24.150;2023-02-28T19:04:11;12.10;85.40
21518;DHT22;61765;45.794;24.150;2023-02-28T19:12:28;11.90;85.90
21518;DHT22;61765;45.794;24.150;2023-02-28T19:20:40;11.80;85.80
21518;DHT22;61765;45.794;24.150;2023-02-28T19:28:48;11.80;86.00
21518;DHT22;61765;45.794;24.150;2023-02-28T19:36:57;11.60;86.20
21518;DHT22;61765;45.794;24.150;2023-02-28T19:45:03;11.60;86.60
21518;DHT22;61765;45.794;24.150;2023-02-28T19:53:14;11.50;86.70
21518;DHT22;61765;45.794;24.150;2023-02-28T20:01:21;11.50;86.60
21518;DHT22;61765;45.794;24.150;2023-02-28T20:09:32;11.30;86.60
21518;DHT22;61765;45.794;24.150;2023-02-28T20:17:38;11.10;86.90
21518;DHT22;61765;45.794;24.150;2023-02-28T20:25:49;10.90;86.80
21518;DHT22;61765;45.794;24.150;2023-02-28T20:33:55;10.90;87.30
21518;DHT22;61765;45.794;24.150;2023-02-28T20:42:03;11.00;86.90
21518;DHT22;61765;45.794;24.150;2023-02-28T20:50:10;10.90;86.80
21518;DHT22;61765;45.794;24.150;2023-02-28T20:58:21;10.90;87.00
21518;DHT22;61765;45.794;24.150;2023-02-28T21:06:30;10.60;87.10
21518;DHT22;61765;45.794;24.150;2023-02-28T21:14:39;10.50;87.00
21518;DHT22;61765;45.794;24.150;2023-02-28T21:22:45;10.40;87.40
21518;DHT22;61765;45.794;24.150;2023-02-28T21:30:53;10.70;87.60
21518;DHT22;61765;45.794;24.150;2023-02-28T21:39:06;10.80;87.80
21518;DHT22;61765;45.794;24.150;2023-02-28T21:47:15;10.60;88.10
21518;DHT22;61765;45.794;24.150;2023-02-28T21:55:22;10.70;88.20
21518;DHT22;61765;45.794;24.150;2023-02-28T22:03:30;10.90;88.00
21518;DHT22;61765;45.794;24.150;2023-02-28T22:11:37;10.80;88.00
21518;DHT22;61765;45.794;24.150;2023-02-28T22:19:45;10.90;86.90
21518;DHT22;61765;45.794;24.150;2023-02-28T22:27:51;10.50;87.40
21518;DHT22;61765;45.794;24.150;2023-02-28T22:36:04;10.70;87.50
21518;DHT22;61765;45.794;24.150;2023-02-28T22:44:10;10.50;87.30
21518;DHT22;61765;45.794;24.150;2023-02-28T22:52:18;10.50;87.00
21518;DHT22;61765;45.794;24.150;2023-02-28T23:00:24;10.40;87.60
21518;DHT22;61765;45.794;24.150;2023-02-28T23:08:32;10.40;87.40
21518;DHT22;61765;45.794;24.150;2023-02-28T23:16:40;10.30;87.90
21518;DHT22;61765;45.794;24.150;2023-02-28T23:24:48;10.60;87.90
21518;DHT22;61765;45.794;24.150;2023-02-28T23:32:55;10.90;87.90
21518;DHT22;61765;45.794;24.150;2023-02-28T23:41:05;10.80;87.80
21518;DHT22;61765;45.794;24.150;2023-02-28T23:49:11;11.00;87.60
21518;DHT22;61765;45.794;24.150;2023-02-28T23:57:19;11.20;87.40
